Time;durP1;ratioP1;P1;durP2;ratioP2;P2;SDS_P1;SDS_P2;PMS_P1;PMS_P2;Temp;Humidity;BMP_temperature;BMP_pressure;BME280_temperature;BME280_humidity;BME280_pressure;Samples;Min_cycle;Max_cycle;Signal;HPM_P1;HPM_P2
2023/11/17 00:00:08;;;;;;;4.10;2.55;;;6.10;99.90;;;;;;4996650;28;20019;-75
2023/11/17 00:02:35;;;;;;;2.63;2.20;;;6.10;99.90;;;;;;4969999;28;20030;-75
2023/11/17 00:05:14;;;;;;;3.37;2.37;;;6.20;99.90;;;;;;4969502;28;20062;-75
2023/11/17 00:07:40;;;;;;;;;;;6.20;99.90;;;;;;4990682;28;20030;-75
2023/11/17 00:10:15;;;;;;;2.03;1.67;;;6.30;99.90;;;;;;4987662;28;19969;-75
2023/11/17 00:13:25;;;;;;;1.90;1.50;;;6.30;99.90;;;;;;4988196;28;20117;-75
2023/11/17 00:15:51;;;;;;;1.63;1.48;;;6.30;99.90;;;;;;4983818;28;20030;-75
2023/11/17 00:18:20;;;;;;;1.30;1.20;;;6.40;99.90;;;;;;4992804;28;20027;-75
2023/11/17 00:21:15;;;;;;;1.25;1.25;;;6.40;99.90;;;;;;4989032;28;20388;-75
2023/11/17 00:23:41;;;;;;;1.02;1.00;;;6.30;99.90;;;;;;4986402;28;20043;-74
2023/11/17 00:26:13;;;;;;;1.10;1.10;;;6.30;99.90;;;;;;4996140;28;20507;-74
2023/11/17 00:31:30;;;;;;;1.00;1.00;;;6.20;99.90;;;;;;4992164;28;20057;-76
2023/11/17 00:34:21;;;;;;;0.90;0.90;;;6.10;99.90;;;;;;4992085;28;20038;-75
2023/11/17 00:37:03;;;;;;;;;;;;;;;;;;;;;
2023/11/17 00:39:56;;;;;;;0.82;0.82;;;5.90;99.90;;;;;;4988826;28;20507;-74
2023/11/17 00:42:28;;;;;;;0.93;0.88;;;5.90;99.90;;;;;;4980986;28;20435;-74
2023/11/17 00:44:54;;;;;;;0.88;0.88;;;5.90;99.90;;;;;;4996221;28;20030;-76
2023/11/17 00:47:38;;;;;;;1.00;1.00;;;5.90;99.90;;;;;;5002107;28;20073;-75
2023/11/17 00:50:11;;;;;;;1.08;0.95;;;5.90;99.90;;;;;;4981407;28;20054;-75
2023/11/17 00:53:06;;;;;;;0.90;0.90;;;5.80;99.90;;;;;;5004239;28;20034;-76
2023/11/17 00:55:34;;;;;;;0.82;0.82;;;5.80;99.90;;;;;;4964197;28;20121;-76
2023/11/17 00:58:01;;;;;;;;;;;5.70;99.90;;;;;;5003625;28;20041;-78
2023/11/17 01:00:27;;;;;;;1.67;1.00;;;5.60;99.90;;;;;;4985419;28;19910;-75
2023/11/17 01:02:57;;;;;;;1.00;0.90;;;5.60;99.90;;;;;;4983462;28;20040;-75
2023/11/17 01:05:32;;;;;;;0.73;0.73;;;5.60;99.90;;;;;;4989969;28;20030;-75
2023/11/17 01:08:06;;;;;;;0.90;0.90;;;5.50;99.90;;;;;;4999473;28;20568;-77
2023/11/17 01:11:13;;;;;;;2.30;0.82;;;5.50;99.90;;;;;;4998181;28;20045;-76
2023/11/17 01:14:00;;;;;;;1.05;0.93;;;5.50;99.90;;;;;;4958914;28;20508;-75
2023/11/17 01:16:49;;;;;;;1.10;1.00;;;5.50;99.90;;;;;;4996162;28;20026;-75
2023/11/17 01:22:42;;;;;;;0.80;0.80;;;5.30;99.90;;;;;;4926586;29;20032;-77
2023/11/17 01:25:10;;;;;;;0.80;0.80;;;5.20;99.90;;;;;;4950847;28;20042;-77
2023/11/17 01:28:09;;;;;;;0.73;0.73;;;5.20;99.90;;;;;;4962958;28;20027;-76
2023/11/17 01:30:34;;;;;;;0.80;0.80;;;5.10;99.90;;;;;;4969331;28;20761;-75
2023/11/17 01:33:06;;;;;;;0.90;0.90;;;5.10;99.90;;;;;;4984569;28;20066;-76
2023/11/17 01:35:32;;;;;;;1.00;1.00;;;5.00;99.90;;;;;;4963433;28;20125;-75
2023/11/17 01:38:01;;;;;;;0.82;0.82;;;5.00;99.90;;;;;;4977841;28;20041;-77
2023/11/17 01:40:46;;;;;;;0.88;0.88;;;4.90;99.90;;;;;;4977860;28;20043;-76
2023/11/17 01:43:13;;;;;;;0.80;0.80;;;4.90;99.90;;;;;;4961395;28;20515;-76
2023/11/17 01:45:46;;;;;;;0.90;0.90;;;4.90;99.90;;;;;;4982748;28;20046;-75
2023/11/17 01:48:19;;;;;;;0.80;0.80;;;4.90;99.90;;;;;;4963697;28;20030;-75
2023/11/17 01:50:46;;;;;;;0.70;0.70;;;4.80;99.90;;;;;;4963898;28;20042;-75
2023/11/17 01:53:13;;;;;;;2.05;0.80;;;4.80;99.90;;;;;;4977564;28;20031;-75
2023/11/17 01:55:40;;;;;;;0.70;0.70;;;4.70;99.90;;;;;;4971223;28;20527;-75
2023/11/17 01:58:25;;;;;;;0.73;0.73;;;4.70;99.90;;;;;;4973194;28;20287;-75
2023/11/17 02:01:02;;;;;;;1.17;0.68;;;4.70;99.90;;;;;;4965331;28;20078;-75
2023/11/17 02:03:29;;;;;;;0.50;0.50;;;4.60;99.90;;;;;;4977690;28;20435;-76
2023/11/17 02:06:14;;;;;;;0.60;0.60;;;4.60;99.90;;;;;;4974073;28;20033;-76
2023/11/17 02:09:13;;;;;;;0.70;0.70;;;4.50;99.90;;;;;;4959851;28;20082;-75
2023/11/17 02:11:46;;;;;;;0.90;0.90;;;4.50;99.90;;;;;;4973890;28;20514;-76
2023/11/17 02:14:26;;;;;;;0.80;0.80;;;4.50;99.90;;;;;;4954887;28;20555;-75
2023/11/17 02:17:03;;;;;;;0.90;0.90;;;4.50;99.90;;;;;;4975128;28;20122;-75
2023/11/17 02:19:43;;;;;;;0.80;0.80;;;4.50;99.90;;;;;;4957931;28;20019;-75
2023/11/17 02:22:19;;;;;;;0.75;0.75;;;4.50;99.90;;;;;;4958855;28;20038;-76
2023/11/17 02:25:10;;;;;;;0.70;0.70;;;4.50;99.90;;;;;;4960473;29;20126;-76
2023/11/17 02:27:40;;;;;;;0.73;0.73;;;4.40;99.90;;;;;;4975149;28;20251;-77
2023/11/17 02:30:08;;;;;;;0.60;0.60;;;4.40;99.90;;;;;;4971790;28;20149;-76
2023/11/17 02:32:38;;;;;;;0.70;0.70;;;4.40;99.90;;;;;;4981253;28;20056;-76
2023/11/17 02:35:06;;;;;;;0.70;0.70;;;4.30;99.90;;;;;;4973721;28;20027;-77
2023/11/17 02:37:32;;;;;;;0.93;0.80;;;4.30;99.90;;;;;;4974104;28;20058;-75
2023/11/17 02:39:57;;;;;;;0.80;0.80;;;4.40;99.90;;;;;;4953544;28;20029;-74
2023/11/17 02:42:26;;;;;;;0.80;0.80;;;4.30;99.90;;;;;;4972831;28;20031;-75
2023/11/17 02:44:52;;;;;;;0.90;0.90;;;4.30;99.90;;;;;;4972394;28;20023;-75
2023/11/17 02:47:38;;;;;;;;;;;;;;;;;;;;;
2023/11/17 02:50:27;;;;;;;1.00;1.00;;;4.30;99.90;;;;;;4978277;28;20037;-75
2023/11/17 02:53:17;;;;;;;0.80;0.80;;;4.20;99.90;;;;;;4985781;28;20038;-77
2023/11/17 02:55:45;;;;;;;2.40;0.90;;;4.20;99.90;;;;;;4991517;28;20015;-77
2023/11/17 02:58:15;;;;;;;0.70;0.70;;;4.20;99.90;;;;;;4967313;29;20035;-76
2023/11/17 03:00:41;;;;;;;0.57;0.57;;;4.20;99.90;;;;;;4990237;28;20031;-77
2023/11/17 03:03:08;;;;;;;0.95;0.95;;;4.10;99.90;;;;;;4989448;28;20069;-78
2023/11/17 03:05:35;;;;;;;0.70;0.70;;;4.10;99.90;;;;;;4984822;28;20035;-77
2023/11/17 03:08:00;;;;;;;0.70;0.70;;;4.10;99.90;;;;;;4990734;28;20011;-76
2023/11/17 03:10:26;;;;;;;0.77;0.77;;;4.10;99.90;;;;;;4979969;28;20046;-75
2023/11/17 03:12:55;;;;;;;0.73;0.73;;;4.10;99.90;;;;;;4986990;28;20027;-76
2023/11/17 03:15:23;;;;;;;;;;;4.10;99.90;;;;;;4970961;28;20030;-76
2023/11/17 03:17:51;;;;;;;0.90;0.90;;;4.10;99.90;;;;;;4983141;28;19910;-75
2023/11/17 03:20:18;;;;;;;0.57;0.57;;;4.10;99.90;;;;;;4979830;28;20509;-76
2023/11/17 03:22:47;;;;;;;0.70;0.70;;;4.10;99.90;;;;;;4980197;28;20027;-75
2023/11/17 03:25:15;;;;;;;0.70;0.70;;;4.10;99.90;;;;;;4969574;28;20026;-75
2023/11/17 03:27:47;;;;;;;0.70;0.70;;;4.10;99.90;;;;;;4969117;28;20034;-77
2023/11/17 03:30:17;;;;;;;0.90;0.90;;;4.10;99.90;;;;;;4980827;28;20047;-76
2023/11/17 03:32:45;;;;;;;0.80;0.80;;;4.10;99.90;;;;;;4969117;28;20027;-75
2023/11/17 03:35:14;;;;;;;0.80;0.80;;;4.10;99.90;;;;;;4980978;28;20026;-77
2023/11/17 03:37:41;;;;;;;1.00;1.00;;;4.10;99.90;;;;;;4980098;28;20051;-75
2023/11/17 03:40:11;;;;;;;0.70;0.70;;;4.10;99.90;;;;;;4967820;28;20035;-77
2023/11/17 03:42:37;;;;;;;0.98;0.80;;;4.10;99.90;;;;;;4977358;28;20563;-78
2023/11/17 03:45:07;;;;;;;0.70;0.70;;;4.10;99.90;;;;;;4993527;28;20083;-75
2023/11/17 03:47:37;;;;;;;0.65;0.65;;;4.10;99.90;;;;;;4982810;28;20035;-75
2023/11/17 03:50:05;;;;;;;1.13;1.02;;;4.10;99.90;;;;;;4985394;28;20025;-75
2023/11/17 03:52:35;;;;;;;1.63;0.80;;;4.10;99.90;;;;;;4967391;28;20055;-75
2023/11/17 03:55:01;;;;;;;0.63;0.63;;;4.10;99.90;;;;;;4984793;28;20310;-75
2023/11/17 03:57:28;;;;;;;0.55;0.55;;;4.10;99.90;;;;;;4964565;28;20026;-74
2023/11/17 03:59:54;;;;;;;0.80;0.80;;;4.10;99.90;;;;;;4980599;28;20026;-76
2023/11/17 04:02:22;;;;;;;0.70;0.70;;;4.10;99.90;;;;;;4958793;28;20394;-75
2023/11/17 04:04:51;;;;;;;0.70;0.70;;;4.10;99.90;;;;;;4975223;28;20033;-75
2023/11/17 04:07:17;;;;;;;0.75;0.75;;;4.20;99.90;;;;;;4971684;28;20420;-76
2023/11/17 04:09:47;;;;;;;0.80;0.80;;;4.10;99.90;;;;;;4953666;28;20034;-75
2023/11/17 04:12:13;;;;;;;0.60;0.60;;;4.10;99.90;;;;;;4972317;28;20023;-77
2023/11/17 04:14:42;;;;;;;0.77;0.77;;;4.20;99.90;;;;;;4973594;28;20066;-75
2023/11/17 04:17:08;;;;;;;0.65;0.60;;;4.10;99.90;;;;;;4972434;28;20031;-76
2023/11/17 04:19:37;;;;;;;0.70;0.70;;;4.10;99.90;;;;;;4973082;28;20387;-75
2023/11/17 04:22:04;;;;;;;0.90;0.90;;;4.10;99.90;;;;;;4975584;28;20023;-75
2023/11/17 04:24:30;;;;;;;0.60;0.60;;;4.10;99.90;;;;;;4967013;28;20120;-75
2023/11/17 04:26:56;;;;;;;0.80;0.80;;;4.10;99.90;;;;;;4964088;28;20046;-74
2023/11/17 04:29:25;;;;;;;2.92;0.95;;;4.10;99.90;;;;;;4957277;28;20029;-75
2023/11/17 04:31:51;;;;;;;;;;;4.20;99.90;;;;;;4975160;28;20042;-75
2023/11/17 04:34:16;;;;;;;0.73;0.73;;;4.20;99.90;;;;;;4968307;28;19906;-74
2023/11/17 04:36:44;;;;;;;0.77;0.77;;;4.20;99.90;;;;;;4969807;28;20142;-75
2023/11/17 04:39:17;;;;;;;0.80;0.80;;;4.20;99.90;;;;;;4970740;28;20082;-74
2023/11/17 04:41:47;;;;;;;0.88;0.88;;;4.20;99.90;;;;;;4951969;28;20152;-74
2023/11/17 04:44:13;;;;;;;0.90;0.90;;;4.20;99.90;;;;;;4958742;28;20026;-73
2023/11/17 04:46:39;;;;;;;0.90;0.90;;;4.20;99.90;;;;;;4970555;28;20042;-74
2023/11/17 04:49:05;;;;;;;0.70;0.70;;;4.20;99.90;;;;;;4952346;28;20440;-75
2023/11/17 04:51:30;;;;;;;1.42;0.90;;;4.20;99.90;;;;;;4952300;28;20030;-76
2023/11/17 04:53:56;;;;;;;0.90;0.90;;;4.20;99.90;;;;;;4968319;28;20038;-75
2023/11/17 04:56:22;;;;;;;0.80;0.80;;;4.20;99.90;;;;;;4951038;28;20074;-74
2023/11/17 04:58:47;;;;;;;0.65;0.65;;;4.10;99.90;;;;;;4968812;28;20381;-74
2023/11/17 05:01:16;;;;;;;1.02;0.95;;;4.20;99.90;;;;;;4970947;28;20101;-75
2023/11/17 05:03:42;;;;;;;;;;;4.20;99.90;;;;;;4963513;28;20068;-75
2023/11/17 05:06:08;;;;;;;0.70;0.70;;;4.30;99.90;;;;;;4973216;28;20157;-75
2023/11/17 05:08:36;;;;;;;0.90;0.90;;;4.20;99.90;;;;;;4970036;28;20102;-75
2023/11/17 05:11:01;;;;;;;0.80;0.80;;;4.30;99.90;;;;;;4972289;28;20268;-76
2023/11/17 05:13:27;;;;;;;0.80;0.80;;;4.20;99.90;;;;;;4966612;28;20054;-75
2023/11/17 05:15:53;;;;;;;0.50;0.50;;;4.20;99.90;;;;;;4983720;28;20027;-74
2023/11/17 05:18:19;;;;;;;0.70;0.70;;;4.20;99.90;;;;;;4957350;28;20035;-76
2023/11/17 05:20:45;;;;;;;0.80;0.80;;;4.20;99.90;;;;;;4986682;28;20050;-75
2023/11/17 05:23:12;;;;;;;0.73;0.70;;;4.20;99.90;;;;;;4986289;28;20109;-75
2023/11/17 05:25:40;;;;;;;0.80;0.80;;;4.20;99.90;;;;;;4967710;28;20316;-75
2023/11/17 05:28:09;;;;;;;0.70;0.70;;;4.30;99.90;;;;;;4967038;28;20038;-76
2023/11/17 05:30:36;;;;;;;0.80;0.80;;;4.20;99.90;;;;;;4980677;28;20297;-77
2023/11/17 05:33:03;;;;;;;1.05;0.90;;;4.30;99.90;;;;;;4963654;28;20070;-75
2023/11/17 05:35:28;;;;;;;1.13;0.98;;;4.30;99.90;;;;;;4958541;28;20027;-75
2023/11/17 05:37:54;;;;;;;0.60;0.60;;;4.30;99.90;;;;;;4953415;28;20042;-75
2023/11/17 05:40:20;;;;;;;0.73;0.73;;;4.30;99.90;;;;;;4969833;28;20041;-74
2023/11/17 05:42:45;;;;;;;0.90;0.90;;;4.30;99.90;;;;;;4963627;28;20076;-75
2023/11/17 05:45:12;;;;;;;0.80;0.80;;;4.30;99.90;;;;;;4966690;28;20023;-75
2023/11/17 05:47:44;;;;;;;1.02;1.02;;;4.30;99.90;;;;;;4975180;28;20090;-75
2023/11/17 05:50:11;;;;;;;1.20;1.20;;;4.30;99.90;;;;;;4963419;28;20050;-75
2023/11/17 05:52:39;;;;;;;0.90;0.90;;;4.30;99.90;;;;;;4962080;28;20476;-75
2023/11/17 05:55:06;;;;;;;0.73;0.73;;;4.30;99.90;;;;;;4974361;28;20040;-76
2023/11/17 05:57:32;;;;;;;1.15;0.85;;;4.30;99.90;;;;;;4957301;28;20042;-75
2023/11/17 06:00:08;;;;;;;0.90;0.90;;;4.30;99.90;;;;;;4970029;28;20027;-73
2023/11/17 06:02:34;;;;;;;0.77;0.77;;;4.40;99.90;;;;;;4972509;28;20031;-75
2023/11/17 06:05:00;;;;;;;0.80;0.80;;;4.40;99.90;;;;;;4986147;28;20033;-73
2023/11/17 06:07:28;;;;;;;0.80;0.80;;;4.40;99.90;;;;;;4962038;28;20416;-75
2023/11/17 06:09:58;;;;;;;0.93;0.77;;;4.40;99.90;;;;;;4964321;28;20052;-74
2023/11/17 06:12:23;;;;;;;0.80;0.80;;;4.40;99.90;;;;;;4988128;28;20054;-74
2023/11/17 06:14:52;;;;;;;0.90;0.90;;;4.40;99.90;;;;;;4968330;28;20026;-74
2023/11/17 06:17:19;;;;;;;;;;;4.40;99.90;;;;;;4980914;28;20101;-75
2023/11/17 06:19:50;;;;;;;0.90;0.90;;;4.40;99.90;;;;;;4961677;28;20395;-74
2023/11/17 06:26:56;;;;;;;;;;;;;;;;;;;;;
2023/11/17 06:36:12;;;;;;;0.82;0.82;;;4.50;99.90;;;;;;4978219;28;20031;-75
2023/11/17 06:38:38;;;;;;;1.20;1.10;;;4.50;99.90;;;;;;4962648;28;20173;-74
2023/11/17 06:41:04;;;;;;;0.95;0.95;;;4.50;99.90;;;;;;4964123;28;20902;-75
2023/11/17 06:43:30;;;;;;;2.55;0.98;;;4.60;99.90;;;;;;4958804;28;20041;-74
2023/11/17 06:45:56;;;;;;;1.00;1.00;;;4.60;99.90;;;;;;4964090;28;20035;-75
2023/11/17 06:48:24;;;;;;;1.02;1.02;;;4.60;99.90;;;;;;4968674;28;20043;-75
2023/11/17 06:50:52;;;;;;;1.20;1.17;;;4.60;99.90;;;;;;4950485;28;20030;-75
2023/11/17 06:53:18;;;;;;;1.08;1.08;;;4.60;99.90;;;;;;4976143;28;20416;-75
2023/11/17 06:55:44;;;;;;;1.60;1.50;;;4.60;99.90;;;;;;4947853;28;20034;-74
2023/11/17 06:58:10;;;;;;;1.60;1.50;;;4.60;99.90;;;;;;4956816;28;20027;-76
2023/11/17 07:00:41;;;;;;;1.67;1.58;;;4.60;99.90;;;;;;4970221;28;20307;-74
2023/11/17 07:03:07;;;;;;;1.55;1.10;;;4.60;99.90;;;;;;4963321;28;20046;-74
2023/11/17 07:05:34;;;;;;;1.50;1.50;;;4.60;99.90;;;;;;4966264;28;20479;-74
2023/11/17 07:08:01;;;;;;;1.60;1.40;;;4.60;99.90;;;;;;4968854;28;20125;-74
2023/11/17 07:10:29;;;;;;;1.30;1.20;;;4.60;99.90;;;;;;4968831;28;20039;-74
2023/11/17 07:12:58;;;;;;;1.55;1.42;;;4.60;99.90;;;;;;4951347;28;20059;-74
2023/11/17 07:15:24;;;;;;;1.50;1.40;;;4.60;99.90;;;;;;4964762;28;20066;-74
2023/11/17 07:17:52;;;;;;;1.10;1.10;;;4.60;99.90;;;;;;4952190;28;20093;-74
2023/11/17 07:20:21;;;;;;;0.83;0.83;;;4.60;99.90;;;;;;4968297;28;20023;-75
2023/11/17 07:22:49;;;;;;;2.30;1.40;;;4.60;99.90;;;;;;4967543;28;20062;-74
2023/11/17 07:25:15;;;;;;;1.17;1.17;;;4.60;99.90;;;;;;4965512;28;20053;-74
2023/11/17 07:27:41;;;;;;;1.15;1.15;;;4.70;99.90;;;;;;4970369;28;20027;-74
2023/11/17 07:30:13;;;;;;;3.05;1.92;;;4.70;99.90;;;;;;4966864;28;20033;-74
2023/11/17 07:32:43;;;;;;;0.82;0.82;;;4.70;99.90;;;;;;4966083;28;20023;-74
2023/11/17 07:35:09;;;;;;;1.17;1.17;;;4.70;99.90;;;;;;4963532;28;20031;-75
2023/11/17 07:37:35;;;;;;;1.42;1.40;;;4.70;99.90;;;;;;4970738;28;20038;-74
2023/11/17 07:40:05;;;;;;;1.27;1.20;;;4.70;99.90;;;;;;4972956;28;20465;-74
2023/11/17 07:42:31;;;;;;;1.17;1.17;;;4.70;99.90;;;;;;4967074;28;20026;-74
2023/11/17 07:45:00;;;;;;;0.93;0.93;;;4.80;99.90;;;;;;4969271;28;20058;-75
2023/11/17 07:47:27;;;;;;;1.20;1.20;;;4.70;99.90;;;;;;4950235;28;20082;-74
2023/11/17 07:49:54;;;;;;;1.30;1.30;;;4.70;99.90;;;;;;4966900;28;20031;-75
2023/11/17 07:52:25;;;;;;;1.50;1.40;;;4.80;99.90;;;;;;4968004;28;20547;-74
2023/11/17 07:54:51;;;;;;;1.17;1.17;;;4.80;99.90;;;;;;4945269;28;20050;-75
2023/11/17 07:57:18;;;;;;;2.13;1.60;;;4.70;99.90;;;;;;4966652;28;20018;-75
2023/11/17 07:59:46;;;;;;;2.03;1.17;;;4.80;99.90;;;;;;4966035;28;20033;-74
2023/11/17 08:02:12;;;;;;;1.45;1.30;;;4.80;99.90;;;;;;4968962;28;20070;-74
2023/11/17 08:04:38;;;;;;;1.90;1.17;;;4.80;99.90;;;;;;4967485;28;20067;-74
2023/11/17 08:07:05;;;;;;;1.83;1.60;;;4.80;99.90;;;;;;4965914;28;20031;-74
2023/11/17 08:09:33;;;;;;;1.25;1.15;;;4.80;99.90;;;;;;4966486;28;20206;-74
2023/11/17 08:12:00;;;;;;;1.50;1.40;;;4.90;99.90;;;;;;4969877;28;20035;-73
2023/11/17 08:14:26;;;;;;;1.20;1.20;;;4.80;99.90;;;;;;4966616;28;20033;-75
2023/11/17 08:16:52;;;;;;;1.33;1.23;;;4.80;99.90;;;;;;4968853;28;20023;-74
2023/11/17 08:19:18;;;;;;;1.35;1.25;;;4.90;99.90;;;;;;4965521;28;20034;-75
2023/11/17 08:21:45;;;;;;;1.30;1.30;;;4.90;99.90;;;;;;4965206;28;20516;-74
2023/11/17 08:24:11;;;;;;;2.15;1.23;;;4.90;99.90;;;;;;4967237;28;20111;-73
2023/11/17 08:26:39;;;;;;;1.00;0.80;;;4.80;99.90;;;;;;4963902;28;20161;-74
2023/11/17 08:29:05;;;;;;;;;;;4.80;99.90;;;;;;4950356;28;20427;-74
2023/11/17 08:31:32;;;;;;;1.08;1.08;;;4.80;99.90;;;;;;4966712;28;19922;-73
2023/11/17 08:33:58;;;;;;;1.50;1.40;;;4.80;99.90;;;;;;4966934;28;20109;-75
2023/11/17 08:36:26;;;;;;;1.48;1.17;;;4.80;99.90;;;;;;4964226;28;20413;-74
2023/11/17 08:38:53;;;;;;;;;;;4.80;99.90;;;;;;4965128;28;20031;-74
2023/11/17 08:41:19;;;;;;;1.00;1.00;;;4.80;99.90;;;;;;4950131;28;19910;-74
2023/11/17 08:43:45;;;;;;;1.83;1.30;;;4.80;99.90;;;;;;4965686;28;20034;-74
2023/11/17 08:46:14;;;;;;;1.40;1.30;;;4.80;99.90;;;;;;4969990;28;20031;-75
2023/11/17 08:48:42;;;;;;;1.48;1.38;;;4.80;99.90;;;;;;4970982;28;20019;-74
2023/11/17 08:51:08;;;;;;;1.13;1.13;;;4.80;99.90;;;;;;4970370;28;20117;-74
2023/11/17 08:53:34;;;;;;;0.75;0.75;;;4.80;99.90;;;;;;4942731;28;20119;-74
2023/11/17 08:56:00;;;;;;;1.10;1.10;;;4.80;99.90;;;;;;4967621;28;20614;-75
2023/11/17 08:58:26;;;;;;;1.35;1.27;;;4.90;99.90;;;;;;4960864;28;20035;-73
2023/11/17 09:00:52;;;;;;;2.53;1.33;;;4.80;99.90;;;;;;4963150;28;20046;-75
2023/11/17 09:03:18;;;;;;;1.45;1.35;;;4.90;99.90;;;;;;4964396;28;20066;-75
2023/11/17 09:05:45;;;;;;;2.38;1.35;;;5.00;99.90;;;;;;4952017;28;20027;-75
2023/11/17 09:08:11;;;;;;;1.55;1.45;;;5.00;99.90;;;;;;4970875;28;20864;-74
2023/11/17 09:10:38;;;;;;;1.63;1.52;;;5.00;99.90;;;;;;4968365;28;20143;-73
2023/11/17 09:13:08;;;;;;;1.40;1.30;;;4.90;99.90;;;;;;4968297;28;20078;-73
2023/11/17 09:15:34;;;;;;;0.73;0.73;;;5.00;99.90;;;;;;4975727;28;20026;-74
2023/11/17 09:18:00;;;;;;;1.42;1.17;;;4.90;99.90;;;;;;4969825;28;20031;-74
2023/11/17 09:20:28;;;;;;;1.42;1.23;;;4.80;99.90;;;;;;4949258;28;20504;-74
2023/11/17 09:22:54;;;;;;;1.30;1.20;;;4.80;99.90;;;;;;4969927;28;20354;-74
2023/11/17 09:25:23;;;;;;;1.23;1.23;;;5.00;99.90;;;;;;4968544;28;20427;-74
2023/11/17 09:27:56;;;;;;;1.75;1.65;;;5.00;99.90;;;;;;4972855;28;20499;-74
2023/11/17 09:30:23;;;;;;;1.55;1.40;;;5.00;99.90;;;;;;4968926;28;20449;-74
2023/11/17 09:32:55;;;;;;;1.40;1.30;;;5.00;99.90;;;;;;4964827;28;20039;-75
2023/11/17 09:35:25;;;;;;;1.58;1.42;;;5.10;99.90;;;;;;4956103;28;20026;-75
2023/11/17 09:37:55;;;;;;;1.85;1.50;;;5.10;99.90;;;;;;4972036;28;20035;-74
2023/11/17 09:40:28;;;;;;;2.58;1.42;;;5.10;99.90;;;;;;4960341;28;20023;-75
2023/11/17 09:43:00;;;;;;;1.58;1.45;;;5.10;99.90;;;;;;4967569;28;20078;-75
2023/11/17 09:45:27;;;;;;;1.35;1.30;;;5.10;99.90;;;;;;4957153;28;20050;-74
2023/11/17 09:48:04;;;;;;;1.65;1.50;;;5.20;99.90;;;;;;4954307;28;20466;-74
2023/11/17 09:50:30;;;;;;;1.88;1.40;;;5.10;99.90;;;;;;4963490;28;20496;-75
2023/11/17 09:52:57;;;;;;;1.00;1.00;;;5.20;99.90;;;;;;4966873;28;20531;-74
2023/11/17 09:55:28;;;;;;;1.60;1.50;;;5.20;99.90;;;;;;4968715;28;20035;-74
2023/11/17 09:58:07;;;;;;;1.52;1.42;;;5.30;99.90;;;;;;4970710;28;20499;-75
2023/11/17 10:00:37;;;;;;;1.52;1.42;;;5.20;99.90;;;;;;4969941;28;20442;-75
2023/11/17 10:03:04;;;;;;;1.35;1.35;;;5.20;99.90;;;;;;4971634;28;20075;-75
2023/11/17 10:05:31;;;;;;;1.50;1.40;;;5.40;99.90;;;;;;4951808;28;20124;-75
2023/11/17 10:08:23;;;;;;;1.75;1.65;;;5.40;99.90;;;;;;4964970;28;20046;-75
2023/11/17 10:10:53;;;;;;;1.73;1.58;;;5.40;99.90;;;;;;4973278;28;20082;-74
2023/11/17 10:13:20;;;;;;;1.13;1.05;;;5.50;99.90;;;;;;4979398;28;20057;-75
2023/11/17 10:15:51;;;;;;;1.42;1.33;;;5.60;99.90;;;;;;4969139;28;20029;-75
2023/11/17 10:18:25;;;;;;;2.10;1.20;;;5.60;99.90;;;;;;4983301;28;20047;-76
2023/11/17 10:20:57;;;;;;;1.60;1.50;;;5.60;99.90;;;;;;4986704;28;20495;-77
2023/11/17 10:23:25;;;;;;;2.35;1.60;;;5.60;99.90;;;;;;4985134;28;20059;-76
2023/11/17 10:25:54;;;;;;;1.70;1.58;;;5.70;99.90;;;;;;4980545;28;20046;-75
2023/11/17 10:28:21;;;;;;;1.52;1.42;;;5.60;99.90;;;;;;4978052;28;20152;-75
2023/11/17 10:30:50;;;;;;;2.30;1.35;;;5.70;99.90;;;;;;4965185;28;20039;-75
2023/11/17 10:33:28;;;;;;;1.85;1.73;;;5.60;99.90;;;;;;4979605;28;20665;-75
2023/11/17 10:36:04;;;;;;;1.58;1.48;;;5.60;99.90;;;;;;4980844;28;20086;-74
2023/11/17 10:38:40;;;;;;;1.50;1.40;;;5.50;99.90;;;;;;4975208;28;20031;-75
2023/11/17 10:41:30;;;;;;;2.00;1.35;;;5.50;99.90;;;;;;4978313;28;20110;-74
2023/11/17 10:44:01;;;;;;;4.22;1.40;;;5.50;99.90;;;;;;4979730;28;20050;-75
2023/11/17 10:46:36;;;;;;;2.10;1.90;;;5.50;99.90;;;;;;4959496;28;20042;-76
2023/11/17 10:49:07;;;;;;;1.27;1.23;;;5.60;99.90;;;;;;4974674;28;20027;-75
2023/11/17 10:51:46;;;;;;;1.65;1.55;;;5.60;99.90;;;;;;4977113;28;20065;-74
2023/11/17 10:54:12;;;;;;;1.63;1.52;;;5.50;99.90;;;;;;4975564;28;20077;-74
2023/11/17 10:56:43;;;;;;;2.33;1.42;;;5.50;99.90;;;;;;4978394;28;20027;-74
2023/11/17 10:59:15;;;;;;;1.60;1.50;;;5.60;99.90;;;;;;4976314;28;20019;-74
2023/11/17 11:01:45;;;;;;;1.05;1.05;;;5.50;99.90;;;;;;4963887;28;20023;-75
2023/11/17 11:04:15;;;;;;;1.50;1.40;;;5.50;99.90;;;;;;4964389;28;20058;-75
2023/11/17 11:06:42;;;;;;;1.50;1.40;;;5.50;99.90;;;;;;4960154;28;20388;-74
2023/11/17 11:09:09;;;;;;;3.42;1.50;;;5.60;99.90;;;;;;4970811;28;20036;-74
2023/11/17 11:11:36;;;;;;;2.85;1.58;;;5.60;99.90;;;;;;4970600;28;20106;-74
2023/11/17 11:14:03;;;;;;;1.13;1.13;;;5.60;99.90;;;;;;4961419;28;20027;-74
2023/11/17 11:16:32;;;;;;;2.67;1.80;;;5.70;99.90;;;;;;4968863;28;20050;-74
2023/11/17 11:19:02;;;;;;;2.65;1.33;;;5.70;99.90;;;;;;4968597;28;20023;-75
2023/11/17 11:21:33;;;;;;;1.98;1.60;;;5.60;99.90;;;;;;4974044;28;20123;-74
2023/11/17 11:24:01;;;;;;;1.88;1.73;;;5.60;99.90;;;;;;4972412;28;20057;-75
2023/11/17 11:26:28;;;;;;;2.25;2.05;;;5.60;99.90;;;;;;4960483;28;20039;-75
2023/11/17 11:28:55;;;;;;;1.73;1.63;;;5.60;99.90;;;;;;4955288;28;20045;-74
2023/11/17 11:31:22;;;;;;;1.30;1.20;;;5.60;99.90;;;;;;4967522;28;20456;-75
2023/11/17 11:33:48;;;;;;;2.53;1.73;;;5.60;99.90;;;;;;4971592;28;20034;-74
2023/11/17 11:36:21;;;;;;;2.13;1.95;;;5.60;99.90;;;;;;4968050;28;20023;-75
2023/11/17 11:38:47;;;;;;;2.20;1.77;;;5.60;99.90;;;;;;4971760;28;20101;-77
2023/11/17 11:41:22;;;;;;;1.70;1.60;;;5.60;99.90;;;;;;4956631;28;20027;-75
2023/11/17 11:43:54;;;;;;;2.10;1.90;;;5.60;99.90;;;;;;4972380;28;20392;-75
2023/11/17 11:46:25;;;;;;;3.33;2.20;;;5.60;99.90;;;;;;4961063;28;20296;-74
2023/11/17 11:49:01;;;;;;;2.90;2.10;;;5.70;99.90;;;;;;4969895;28;20511;-74
2023/11/17 11:51:31;;;;;;;2.13;1.95;;;5.70;99.90;;;;;;4959669;28;20397;-74
2023/11/17 11:54:01;;;;;;;2.38;2.17;;;5.70;99.90;;;;;;4966405;28;20071;-74
2023/11/17 11:56:29;;;;;;;2.03;1.92;;;5.70;99.90;;;;;;4945272;28;20411;-75
2023/11/17 11:58:55;;;;;;;2.78;2.42;;;5.80;99.90;;;;;;4961752;28;20039;-74
2023/11/17 12:01:22;;;;;;;3.22;2.17;;;5.90;99.90;;;;;;4940447;28;20043;-75
2023/11/17 12:03:53;;;;;;;1.73;1.42;;;5.90;99.90;;;;;;4957978;28;20818;-75
2023/11/17 12:06:30;;;;;;;2.35;1.90;;;5.80;99.90;;;;;;4966514;28;20030;-75
2023/11/17 12:08:57;;;;;;;2.58;2.08;;;5.90;99.90;;;;;;4964857;28;20043;-74
2023/11/17 12:11:27;;;;;;;1.63;1.52;;;5.90;99.90;;;;;;4966419;28;20043;-74
2023/11/17 12:13:53;;;;;;;2.15;1.67;;;5.80;99.90;;;;;;4964149;28;20042;-76
2023/11/17 12:16:40;;;;;;;2.55;2.35;;;5.80;99.90;;;;;;4965676;28;20055;-75
2023/11/17 12:19:06;;;;;;;3.25;2.25;;;5.80;99.90;;;;;;4953225;28;20270;-75
2023/11/17 12:21:38;;;;;;;1.27;1.15;;;5.90;99.90;;;;;;4964644;28;20392;-74
2023/11/17 12:24:22;;;;;;;1.90;1.27;;;5.80;99.90;;;;;;4961416;28;20398;-74
2023/11/17 12:26:50;;;;;;;2.05;1.88;;;5.80;99.90;;;;;;4941436;28;20030;-74
2023/11/17 12:29:37;;;;;;;2.33;2.13;;;5.80;99.90;;;;;;4964494;28;20420;-74
2023/11/17 12:32:04;;;;;;;3.03;2.47;;;5.90;99.90;;;;;;4965653;28;20039;-74
2023/11/17 12:34:30;;;;;;;2.33;2.22;;;5.80;99.90;;;;;;4965707;28;20033;-74
2023/11/17 12:37:00;;;;;;;3.05;2.22;;;5.80;99.90;;;;;;4966359;28;20034;-74
2023/11/17 12:39:36;;;;;;;2.40;1.95;;;5.80;99.90;;;;;;4968635;28;20526;-74
2023/11/17 12:42:03;;;;;;;2.05;1.85;;;5.80;99.90;;;;;;4964892;28;20018;-73
2023/11/17 12:44:32;;;;;;;5.32;2.95;;;5.90;99.90;;;;;;4956305;28;20026;-74
2023/11/17 12:46:58;;;;;;;3.17;2.00;;;6.00;99.90;;;;;;4946330;28;20087;-73
2023/11/17 12:49:24;;;;;;;3.75;2.75;;;6.00;99.90;;;;;;4963798;28;20672;-74
2023/11/17 12:51:50;;;;;;;4.82;2.97;;;6.00;99.90;;;;;;4946006;29;20059;-74
2023/11/17 12:54:17;;;;;;;2.17;2.00;;;6.00;99.90;;;;;;4950953;28;20033;-76
2023/11/17 12:56:46;;;;;;;3.33;2.90;;;6.00;99.90;;;;;;4965570;28;20044;-74
2023/11/17 12:59:11;;;;;;;3.08;2.55;;;6.00;99.90;;;;;;4964560;28;20027;-74
2023/11/17 13:01:38;;;;;;;3.72;2.60;;;6.10;99.90;;;;;;4968322;28;20024;-74
2023/11/17 13:04:04;;;;;;;3.90;3.08;;;6.00;99.90;;;;;;4965005;28;20023;-74
2023/11/17 13:06:31;;;;;;;3.15;2.85;;;6.10;99.90;;;;;;4957540;28;20024;-74
2023/11/17 13:08:58;;;;;;;3.75;2.90;;;6.00;99.90;;;;;;4968655;28;20051;-74
2023/11/17 13:11:32;;;;;;;4.03;2.90;;;5.90;99.90;;;;;;4961732;28;20444;-74
2023/11/17 13:13:59;;;;;;;3.50;3.08;;;5.90;99.90;;;;;;4970658;28;20046;-73
2023/11/17 13:16:28;;;;;;;4.72;2.55;;;6.00;99.90;;;;;;4967256;28;20042;-73
2023/11/17 13:18:55;;;;;;;2.95;2.30;;;6.00;99.90;;;;;;4964119;28;20480;-74
2023/11/17 13:21:21;;;;;;;3.90;3.17;;;6.00;99.90;;;;;;4964303;28;20480;-74
2023/11/17 13:23:50;;;;;;;3.00;2.30;;;6.00;99.90;;;;;;4957499;28;20089;-73
2023/11/17 13:26:25;;;;;;;3.20;2.15;;;6.10;99.90;;;;;;4946726;28;20026;-74
2023/11/17 13:28:52;;;;;;;2.65;2.20;;;6.10;99.90;;;;;;4956689;28;20519;-74
2023/11/17 13:31:36;;;;;;;2.50;2.10;;;6.10;99.90;;;;;;4973244;28;20290;-75
2023/11/17 13:34:02;;;;;;;3.58;2.53;;;6.10;99.90;;;;;;4967797;28;20114;-74